sensor_id;sensor_type;location;lat;lon;timestamp;temperature;humidity
11736;DHT22;5924;51.398;7.088;2023-04-10T00:00:09;4.60;99.90
11736;DHT22;5924;51.398;7.088;2023-04-10T00:02:35;4.50;99.90
11736;DHT22;5924;51.398;7.088;2023-04-10T00:05:02;4.40;99.90
11736;DHT22;5924;51.398;7.088;2023-04-10T00:07:28;4.40;99.90
11736;DHT22;5924;51.398;7.088;2023-04-10T00:09:53;4.40;99.90
11736;DHT22;5924;51.398;7.088;2023-04-10T00:12:19;4.40;99.90
11736;DHT22;5924;51.398;7.088;2023-04-10T00:14:45;4.30;99.90
11736;DHT22;5924;51.398;7.088;2023-04-10T00:17:11;4.30;99.90
11736;DHT22;5924;51.398;7.088;2023-04-10T00:19:37;4.30;99.90
11736;DHT22;5924;51.398;7.088;2023-04-10T00:22:03;4.20;99.90
11736;DHT22;5924;51.398;7.088;2023-04-10T00:24:29;4.20;99.90
11736;DHT22;5924;51.398;7.088;2023-04-10T00:26:55;4.20;99.90
11736;DHT22;5924;51.398;7.088;2023-04-10T00:29:22;4.20;99.90
11736;DHT22;5924;51.398;7.088;2023-04-10T00:31:47;4.10;99.90
11736;DHT22;5924;51.398;7.088;2023-04-10T00:34:14;4.10;99.90
11736;DHT22;5924;51.398;7.088;2023-04-10T00:36:40;4.10;99.90
11736;DHT22;5924;51.398;7.088;2023-04-10T00:39:06;4.10;99.90
11736;DHT22;5924;51.398;7.088;2023-04-10T00:41:32;4.10;99.90
11736;DHT22;5924;51.398;7.088;2023-04-10T00:43:57;4.10;99.90
11736;DHT22;5924;51.398;7.088;2023-04-10T00:46:24;4.10;99.90
11736;DHT22;5924;51.398;7.088;2023-04-10T00:48:51;4.10;99.90
11736;DHT22;5924;51.398;7.088;2023-04-10T00:51:17;4.10;99.90
11736;DHT22;5924;51.398;7.088;2023-04-10T00:53:49;4.10;99.90
11736;DHT22;5924;51.398;7.088;2023-04-10T00:56:19;4.10;99.90
11736;DHT22;5924;51.398;7.088;2023-04-10T00:58:45;4.00;99.90
11736;DHT22;5924;51.398;7.088;2023-04-10T01:01:11;4.00;99.90
11736;DHT22;5924;51.398;7.088;2023-04-10T01:03:38;4.00;99.90
11736;DHT22;5924;51.398;7.088;2023-04-10T01:06:07;4.10;99.90
11736;DHT22;5924;51.398;7.088;2023-04-10T01:16:51;4.40;99.90
11736;DHT22;5924;51.398;7.088;2023-04-10T01:22:01;4.50;99.90
11736;DHT22;5924;51.398;7.088;2023-04-10T01:30:38;6.70;99.90
11736;DHT22;5924;51.398;7.088;2023-04-10T01:33:09;4.30;99.90
11736;DHT22;5924;51.398;7.088;2023-04-10T01:35:37;4.30;99.90
11736;DHT22;5924;51.398;7.088;2023-04-10T01:38:05;4.40;99.90
11736;DHT22;5924;51.398;7.088;2023-04-10T01:40:32;4.40;99.90
11736;DHT22;5924;51.398;7.088;2023-04-10T01:42:59;4.40;99.90
11736;DHT22;5924;51.398;7.088;2023-04-10T01:45:27;4.50;99.90
11736;DHT22;5924;51.398;7.088;2023-04-10T01:47:56;4.50;99.90
11736;DHT22;5924;51.398;7.088;2023-04-10T01:50:22;4.50;99.90
11736;DHT22;5924;51.398;7.088;2023-04-10T01:52:50;4.40;99.90
11736;DHT22;5924;51.398;7.088;2023-04-10T01:55:18;4.40;99.90
11736;DHT22;5924;51.398;7.088;2023-04-10T01:57:45;4.40;99.90
11736;DHT22;5924;51.398;7.088;2023-04-10T02:00:13;4.40;99.90
11736;DHT22;5924;51.398;7.088;2023-04-10T02:02:40;4.40;99.90
11736;DHT22;5924;51.398;7.088;2023-04-10T02:05:07;4.50;99.90
11736;DHT22;5924;51.398;7.088;2023-04-10T02:07:40;4.30;99.90
11736;DHT22;5924;51.398;7.088;2023-04-10T02:12:48;4.30;99.90
11736;DHT22;5924;51.398;7.088;2023-04-10T02:15:20;4.30;99.90
11736;DHT22;5924;51.398;7.088;2023-04-10T02:17:46;4.40;99.90
11736;DHT22;5924;51.398;7.088;2023-04-10T02:20:13;4.40;99.90
11736;DHT22;5924;51.398;7.088;2023-04-10T02:22:40;4.40;99.90
11736;DHT22;5924;51.398;7.088;2023-04-10T02:25:10;4.40;99.90
11736;DHT22;5924;51.398;7.088;2023-04-10T02:27:36;4.40;99.90
11736;DHT22;5924;51.398;7.088;2023-04-10T02:30:03;4.40;99.90
11736;DHT22;5924;51.398;7.088;2023-04-10T02:32:30;4.20;99.90
11736;DHT22;5924;51.398;7.088;2023-04-10T02:34:57;4.10;99.90
11736;DHT22;5924;51.398;7.088;2023-04-10T02:37:23;4.10;99.90
11736;DHT22;5924;51.398;7.088;2023-04-10T02:39:48;4.00;99.90
11736;DHT22;5924;51.398;7.088;2023-04-10T02:42:14;4.10;99.90
11736;DHT22;5924;51.398;7.088;2023-04-10T02:44:40;4.10;99.90
11736;DHT22;5924;51.398;7.088;2023-04-10T02:47:06;4.10;99.90
11736;DHT22;5924;51.398;7.088;2023-04-10T02:49:34;4.10;99.90
11736;DHT22;5924;51.398;7.088;2023-04-10T02:52:00;4.10;99.90
11736;DHT22;5924;51.398;7.088;2023-04-10T02:54:26;4.20;99.90
11736;DHT22;5924;51.398;7.088;2023-04-10T02:56:52;4.40;99.90
11736;DHT22;5924;51.398;7.088;2023-04-10T02:59:18;4.50;99.90
11736;DHT22;5924;51.398;7.088;2023-04-10T03:01:45;4.60;99.90
11736;DHT22;5924;51.398;7.088;2023-04-10T03:04:11;4.60;99.90
11736;DHT22;5924;51.398;7.088;2023-04-10T03:06:37;4.50;99.90
11736;DHT22;5924;51.398;7.088;2023-04-10T03:09:03;4.60;99.90
11736;DHT22;5924;51.398;7.088;2023-04-10T03:11:29;4.50;99.90
11736;DHT22;5924;51.398;7.088;2023-04-10T03:13:55;4.50;99.90
11736;DHT22;5924;51.398;7.088;2023-04-10T03:16:22;4.40;99.90
11736;DHT22;5924;51.398;7.088;2023-04-10T03:18:48;4.40;99.90
11736;DHT22;5924;51.398;7.088;2023-04-10T03:21:14;4.50;99.90
11736;DHT22;5924;51.398;7.088;2023-04-10T03:23:40;4.60;99.90
11736;DHT22;5924;51.398;7.088;2023-04-10T03:26:06;4.60;99.90
11736;DHT22;5924;51.398;7.088;2023-04-10T03:28:33;4.60;99.90
11736;DHT22;5924;51.398;7.088;2023-04-10T03:31:04;4.50;99.90
11736;DHT22;5924;51.398;7.088;2023-04-10T03:33:30;4.50;99.90
11736;DHT22;5924;51.398;7.088;2023-04-10T03:35:55;4.70;99.90
11736;DHT22;5924;51.398;7.088;2023-04-10T03:38:22;4.90;99.90
11736;DHT22;5924;51.398;7.088;2023-04-10T03:40:47;5.00;99.90
11736;DHT22;5924;51.398;7.088;2023-04-10T03:43:13;5.20;99.90
11736;DHT22;5924;51.398;7.088;2023-04-10T03:45:38;5.30;99.90
11736;DHT22;5924;51.398;7.088;2023-04-10T03:48:05;5.40;99.90
11736;DHT22;5924;51.398;7.088;2023-04-10T03:50:30;5.40;99.90
11736;DHT22;5924;51.398;7.088;2023-04-10T03:52:56;5.40;99.90
11736;DHT22;5924;51.398;7.088;2023-04-10T03:55:22;5.30;99.90
11736;DHT22;5924;51.398;7.088;2023-04-10T03:57:48;5.40;99.90
11736;DHT22;5924;51.398;7.088;2023-04-10T04:00:14;5.40;99.90
11736;DHT22;5924;51.398;7.088;2023-04-10T04:02:41;5.40;99.90
11736;DHT22;5924;51.398;7.088;2023-04-10T04:05:07;5.40;99.90
11736;DHT22;5924;51.398;7.088;2023-04-10T04:07:32;5.40;99.90
11736;DHT22;5924;51.398;7.088;2023-04-10T04:09:58;5.30;99.90
11736;DHT22;5924;51.398;7.088;2023-04-10T04:12:25;5.10;99.90
11736;DHT22;5924;51.398;7.088;2023-04-10T04:14:51;6.50;99.90
11736;DHT22;5924;51.398;7.088;2023-04-10T04:17:16;4.70;99.90
11736;DHT22;5924;51.398;7.088;2023-04-10T04:19:42;4.60;99.90
11736;DHT22;5924;51.398;7.088;2023-04-10T04:22:08;4.70;99.90
11736;DHT22;5924;51.398;7.088;2023-04-10T04:24:33;4.80;99.90
11736;DHT22;5924;51.398;7.088;2023-04-10T04:26:59;4.80;99.90
11736;DHT22;5924;51.398;7.088;2023-04-10T04:29:25;4.90;99.90
11736;DHT22;5924;51.398;7.088;2023-04-10T04:31:51;5.00;99.90
11736;DHT22;5924;51.398;7.088;2023-04-10T04:34:17;5.10;99.90
11736;DHT22;5924;51.398;7.088;2023-04-10T04:36:42;5.20;99.90
11736;DHT22;5924;51.398;7.088;2023-04-10T04:39:08;5.40;99.90
11736;DHT22;5924;51.398;7.088;2023-04-10T04:41:34;2.90;99.90
11736;DHT22;5924;51.398;7.088;2023-04-10T04:44:00;5.50;99.90
11736;DHT22;5924;51.398;7.088;2023-04-10T04:46:26;5.60;99.90
11736;DHT22;5924;51.398;7.088;2023-04-10T04:48:52;5.60;99.90
11736;DHT22;5924;51.398;7.088;2023-04-10T04:51:18;5.60;99.90
11736;DHT22;5924;51.398;7.088;2023-04-10T04:53:43;5.60;99.90
11736;DHT22;5924;51.398;7.088;2023-04-10T04:56:09;5.70;99.90
11736;DHT22;5924;51.398;7.088;2023-04-10T04:58:35;5.70;99.90
11736;DHT22;5924;51.398;7.088;2023-04-10T05:01:00;5.60;99.90
11736;DHT22;5924;51.398;7.088;2023-04-10T05:03:26;5.70;99.90
11736;DHT22;5924;51.398;7.088;2023-04-10T05:05:55;5.60;99.90
11736;DHT22;5924;51.398;7.088;2023-04-10T05:08:21;5.60;99.90
11736;DHT22;5924;51.398;7.088;2023-04-10T05:10:47;5.70;99.90
11736;DHT22;5924;51.398;7.088;2023-04-10T05:13:12;5.70;99.90
11736;DHT22;5924;51.398;7.088;2023-04-10T05:15:40;5.80;99.90
11736;DHT22;5924;51.398;7.088;2023-04-10T05:18:05;5.80;99.90
11736;DHT22;5924;51.398;7.088;2023-04-10T05:20:33;5.90;99.90
11736;DHT22;5924;51.398;7.088;2023-04-10T05:23:00;6.00;99.90
11736;DHT22;5924;51.398;7.088;2023-04-10T05:25:25;6.30;99.90
11736;DHT22;5924;51.398;7.088;2023-04-10T05:27:51;6.30;99.90
11736;DHT22;5924;51.398;7.088;2023-04-10T05:30:17;6.50;99.90
11736;DHT22;5924;51.398;7.088;2023-04-10T05:32:42;6.70;99.90
11736;DHT22;5924;51.398;7.088;2023-04-10T05:35:08;7.00;99.90
11736;DHT22;5924;51.398;7.088;2023-04-10T05:37:34;7.10;99.90
11736;DHT22;5924;51.398;7.088;2023-04-10T05:39:59;7.20;99.90
11736;DHT22;5924;51.398;7.088;2023-04-10T05:42:25;7.40;99.90
11736;DHT22;5924;51.398;7.088;2023-04-10T05:44:51;7.60;99.90
11736;DHT22;5924;51.398;7.088;2023-04-10T05:47:17;7.80;99.90
11736;DHT22;5924;51.398;7.088;2023-04-10T05:49:43;7.90;99.90
11736;DHT22;5924;51.398;7.088;2023-04-10T05:52:08;8.00;99.90
11736;DHT22;5924;51.398;7.088;2023-04-10T05:54:34;8.10;99.90
11736;DHT22;5924;51.398;7.088;2023-04-10T05:57:00;8.20;99.90
11736;DHT22;5924;51.398;7.088;2023-04-10T05:59:26;8.30;99.90
11736;DHT22;5924;51.398;7.088;2023-04-10T06:01:52;8.40;99.90
11736;DHT22;5924;51.398;7.088;2023-04-10T06:04:17;8.50;99.90
11736;DHT22;5924;51.398;7.088;2023-04-10T06:06:43;8.60;99.90
11736;DHT22;5924;51.398;7.088;2023-04-10T06:09:09;8.70;99.90
11736;DHT22;5924;51.398;7.088;2023-04-10T06:11:35;9.70;99.90
11736;DHT22;5924;51.398;7.088;2023-04-10T06:14:00;8.90;99.90
11736;DHT22;5924;51.398;7.088;2023-04-10T06:16:26;9.00;99.90
11736;DHT22;5924;51.398;7.088;2023-04-10T06:18:52;9.10;99.90
11736;DHT22;5924;51.398;7.088;2023-04-10T06:21:18;9.20;99.90
11736;DHT22;5924;51.398;7.088;2023-04-10T06:23:44;9.30;99.90
11736;DHT22;5924;51.398;7.088;2023-04-10T06:26:09;9.40;99.90
11736;DHT22;5924;51.398;7.088;2023-04-10T06:28:35;9.50;99.90
11736;DHT22;5924;51.398;7.088;2023-04-10T06:31:01;9.50;99.90
11736;DHT22;5924;51.398;7.088;2023-04-10T06:33:30;9.50;99.90
11736;DHT22;5924;51.398;7.088;2023-04-10T06:35:56;9.60;99.90
11736;DHT22;5924;51.398;7.088;2023-04-10T06:38:21;9.60;99.90
11736;DHT22;5924;51.398;7.088;2023-04-10T06:40:47;9.70;99.90
11736;DHT22;5924;51.398;7.088;2023-04-10T06:43:13;9.80;99.90
11736;DHT22;5924;51.398;7.088;2023-04-10T06:45:38;9.90;99.90
11736;DHT22;5924;51.398;7.088;2023-04-10T06:48:05;10.00;99.90
11736;DHT22;5924;51.398;7.088;2023-04-10T06:50:30;10.10;99.90
11736;DHT22;5924;51.398;7.088;2023-04-10T06:52:56;10.20;99.90
11736;DHT22;5924;51.398;7.088;2023-04-10T06:55:25;10.40;99.90
11736;DHT22;5924;51.398;7.088;2023-04-10T06:57:50;10.50;99.90
11736;DHT22;5924;51.398;7.088;2023-04-10T07:00:18;10.70;99.90
11736;DHT22;5924;51.398;7.088;2023-04-10T07:02:44;10.90;99.90
11736;DHT22;5924;51.398;7.088;2023-04-10T07:05:10;11.00;99.90
11736;DHT22;5924;51.398;7.088;2023-04-10T07:07:36;11.10;99.90
11736;DHT22;5924;51.398;7.088;2023-04-10T07:10:02;9.20;99.90
11736;DHT22;5924;51.398;7.088;2023-04-10T07:12:28;11.30;99.90
11736;DHT22;5924;51.398;7.088;2023-04-10T07:14:53;11.40;99.90
11736;DHT22;5924;51.398;7.088;2023-04-10T07:17:19;11.50;99.90
11736;DHT22;5924;51.398;7.088;2023-04-10T07:19:45;11.60;99.90
11736;DHT22;5924;51.398;7.088;2023-04-10T07:22:11;11.70;99.90
11736;DHT22;5924;51.398;7.088;2023-04-10T07:24:36;11.70;99.90
11736;DHT22;5924;51.398;7.088;2023-04-10T07:27:02;11.80;99.90
11736;DHT22;5924;51.398;7.088;2023-04-10T07:29:29;11.80;99.90
11736;DHT22;5924;51.398;7.088;2023-04-10T07:31:55;11.90;99.90
11736;DHT22;5924;51.398;7.088;2023-04-10T07:34:21;12.00;99.90
11736;DHT22;5924;51.398;7.088;2023-04-10T07:36:47;12.20;99.90
11736;DHT22;5924;51.398;7.088;2023-04-10T07:39:12;12.30;99.90
11736;DHT22;5924;51.398;7.088;2023-04-10T07:41:38;12.40;99.90
11736;DHT22;5924;51.398;7.088;2023-04-10T07:44:04;12.50;99.90
11736;DHT22;5924;51.398;7.088;2023-04-10T07:46:30;12.60;99.90
11736;DHT22;5924;51.398;7.088;2023-04-10T07:48:56;12.60;99.90
11736;DHT22;5924;51.398;7.088;2023-04-10T07:51:22;12.50;99.90
11736;DHT22;5924;51.398;7.088;2023-04-10T07:53:47;12.50;99.90
11736;DHT22;5924;51.398;7.088;2023-04-10T07:56:20;12.60;99.90
11736;DHT22;5924;51.398;7.088;2023-04-10T07:58:46;12.50;99.90
11736;DHT22;5924;51.398;7.088;2023-04-10T08:01:12;12.50;99.90
11736;DHT22;5924;51.398;7.088;2023-04-10T08:03:43;12.40;99.90
11736;DHT22;5924;51.398;7.088;2023-04-10T08:06:10;12.40;99.90
11736;DHT22;5924;51.398;7.088;2023-04-10T08:08:41;12.50;99.90
11736;DHT22;5924;51.398;7.088;2023-04-10T08:11:29;12.60;99.90
11736;DHT22;5924;51.398;7.088;2023-04-10T08:13:59;12.70;99.90
11736;DHT22;5924;51.398;7.088;2023-04-10T08:16:30;12.90;99.90
11736;DHT22;5924;51.398;7.088;2023-04-10T08:18:56;13.10;99.90
11736;DHT22;5924;51.398;7.088;2023-04-10T08:21:23;13.30;99.90
11736;DHT22;5924;51.398;7.088;2023-04-10T08:23:51;13.50;99.90
11736;DHT22;5924;51.398;7.088;2023-04-10T08:26:17;13.70;99.90
11736;DHT22;5924;51.398;7.088;2023-04-10T08:28:45;13.80;99.90
11736;DHT22;5924;51.398;7.088;2023-04-10T08:31:13;13.90;99.90
11736;DHT22;5924;51.398;7.088;2023-04-10T08:33:39;14.10;99.90
11736;DHT22;5924;51.398;7.088;2023-04-10T08:36:07;14.10;99.90
11736;DHT22;5924;51.398;7.088;2023-04-10T08:38:32;14.20;99.90
11736;DHT22;5924;51.398;7.088;2023-04-10T08:40:58;14.30;99.90
11736;DHT22;5924;51.398;7.088;2023-04-10T08:43:25;14.50;99.90
11736;DHT22;5924;51.398;7.088;2023-04-10T08:45:51;14.80;99.70
11736;DHT22;5924;51.398;7.088;2023-04-10T08:48:18;14.90;98.90
11736;DHT22;5924;51.398;7.088;2023-04-10T08:50:48;15.00;98.50
11736;DHT22;5924;51.398;7.088;2023-04-10T08:53:15;15.10;96.30
11736;DHT22;5924;51.398;7.088;2023-04-10T08:55:44;15.20;96.40
11736;DHT22;5924;51.398;7.088;2023-04-10T08:58:10;15.40;96.80
11736;DHT22;5924;51.398;7.088;2023-04-10T09:00:38;15.40;95.30
11736;DHT22;5924;51.398;7.088;2023-04-10T09:03:10;15.40;94.30
11736;DHT22;5924;51.398;7.088;2023-04-10T09:05:39;15.20;92.90
11736;DHT22;5924;51.398;7.088;2023-04-10T09:08:07;15.20;94.00
11736;DHT22;5924;51.398;7.088;2023-04-10T09:10:33;15.20;93.50
11736;DHT22;5924;51.398;7.088;2023-04-10T09:12:59;15.10;92.80
11736;DHT22;5924;51.398;7.088;2023-04-10T09:15:24;15.10;92.20
11736;DHT22;5924;51.398;7.088;2023-04-10T09:20:21;15.40;92.60
11736;DHT22;5924;51.398;7.088;2023-04-10T09:22:47;15.50;93.10
11736;DHT22;5924;51.398;7.088;2023-04-10T09:25:35;15.50;92.30
11736;DHT22;5924;51.398;7.088;2023-04-10T09:28:05;17.80;93.10
11736;DHT22;5924;51.398;7.088;2023-04-10T09:30:38;15.70;91.60
11736;DHT22;5924;51.398;7.088;2023-04-10T09:33:21;15.70;91.10
11736;DHT22;5924;51.398;7.088;2023-04-10T09:35:47;15.50;90.90
11736;DHT22;5924;51.398;7.088;2023-04-10T09:38:15;15.50;91.40
11736;DHT22;5924;51.398;7.088;2023-04-10T09:40:41;16.30;90.70
11736;DHT22;5924;51.398;7.088;2023-04-10T09:43:36;15.50;90.50
11736;DHT22;5924;51.398;7.088;2023-04-10T09:46:03;15.60;88.30
11736;DHT22;5924;51.398;7.088;2023-04-10T09:48:29;15.60;89.10
11736;DHT22;5924;51.398;7.088;2023-04-10T09:50:54;15.10;90.00
11736;DHT22;5924;51.398;7.088;2023-04-10T09:53:21;15.80;89.70
11736;DHT22;5924;51.398;7.088;2023-04-10T09:55:47;16.00;88.80
11736;DHT22;5924;51.398;7.088;2023-04-10T09:58:14;16.10;89.60
11736;DHT22;5924;51.398;7.088;2023-04-10T10:00:48;16.20;89.90
11736;DHT22;5924;51.398;7.088;2023-04-10T10:03:15;16.40;88.50
11736;DHT22;5924;51.398;7.088;2023-04-10T10:05:44;16.60;89.50
11736;DHT22;5924;51.398;7.088;2023-04-10T10:08:12;16.80;90.10
11736;DHT22;5924;51.398;7.088;2023-04-10T10:10:49;15.00;86.10
11736;DHT22;5924;51.398;7.088;2023-04-10T10:13:40;16.90;86.00
11736;DHT22;5924;51.398;7.088;2023-04-10T10:16:13;17.00;87.40
11736;DHT22;5924;51.398;7.088;2023-04-10T10:21:18;17.40;84.80
11736;DHT22;5924;51.398;7.088;2023-04-10T10:23:46;17.50;84.30
11736;DHT22;5924;51.398;7.088;2023-04-10T10:26:13;17.40;81.60
11736;DHT22;5924;51.398;7.088;2023-04-10T10:28:40;17.10;82.90
11736;DHT22;5924;51.398;7.088;2023-04-10T10:31:06;17.00;85.20
11736;DHT22;5924;51.398;7.088;2023-04-10T10:33:34;17.10;81.00
11736;DHT22;5924;51.398;7.088;2023-04-10T10:36:02;17.20;79.50
11736;DHT22;5924;51.398;7.088;2023-04-10T10:38:29;17.30;83.70
11736;DHT22;5924;51.398;7.088;2023-04-10T10:41:18;17.40;82.00
11736;DHT22;5924;51.398;7.088;2023-04-10T10:44:13;17.60;81.60
11736;DHT22;5924;51.398;7.088;2023-04-10T10:46:57;17.60;78.80
11736;DHT22;5924;51.398;7.088;2023-04-10T10:49:54;17.70;76.90
11736;DHT22;5924;51.398;7.088;2023-04-10T10:58:07;17.90;77.20
11736;DHT22;5924;51.398;7.088;2023-04-10T11:08:35;18.00;70.80
11736;DHT22;5924;51.398;7.088;2023-04-10T11:11:06;18.00;71.40
11736;DHT22;5924;51.398;7.088;2023-04-10T11:13:39;18.00;73.80
11736;DHT22;5924;51.398;7.088;2023-04-10T11:16:08;18.20;71.80
11736;DHT22;5924;51.398;7.088;2023-04-10T11:21:14;18.20;70.70
11736;DHT22;5924;51.398;7.088;2023-04-10T11:31:47;17.80;68.60
11736;DHT22;5924;51.398;7.088;2023-04-10T11:34:19;17.90;69.50
11736;DHT22;5924;51.398;7.088;2023-04-10T11:36:45;18.10;69.20
11736;DHT22;5924;51.398;7.088;2023-04-10T11:39:13;18.20;69.10
11736;DHT22;5924;51.398;7.088;2023-04-10T11:41:44;18.30;69.20
11736;DHT22;5924;51.398;7.088;2023-04-10T11:44:31;18.40;68.00
11736;DHT22;5924;51.398;7.088;2023-04-10T11:46:59;18.50;69.10
11736;DHT22;5924;51.398;7.088;2023-04-10T11:49:28;18.80;72.40
11736;DHT22;5924;51.398;7.088;2023-04-10T11:51:54;19.10;69.10
11736;DHT22;5924;51.398;7.088;2023-04-10T11:54:27;19.20;68.30
11736;DHT22;5924;51.398;7.088;2023-04-10T11:57:01;19.40;68.30
11736;DHT22;5924;51.398;7.088;2023-04-10T11:59:29;19.40;66.40
11736;DHT22;5924;51.398;7.088;2023-04-10T12:02:06;19.30;67.90
11736;DHT22;5924;51.398;7.088;2023-04-10T12:04:34;19.40;66.60
11736;DHT22;5924;51.398;7.088;2023-04-10T12:07:00;19.30;66.80
11736;DHT22;5924;51.398;7.088;2023-04-10T12:09:25;19.10;64.30
11736;DHT22;5924;51.398;7.088;2023-04-10T12:12:05;18.80;63.60
11736;DHT22;5924;51.398;7.088;2023-04-10T12:14:41;18.80;64.80
11736;DHT22;5924;51.398;7.088;2023-04-10T12:17:09;19.10;63.40
11736;DHT22;5924;51.398;7.088;2023-04-10T12:19:36;19.40;64.40
11736;DHT22;5924;51.398;7.088;2023-04-10T12:22:02;19.70;62.60
11736;DHT22;5924;51.398;7.088;2023-04-10T12:24:50;19.70;62.00
11736;DHT22;5924;51.398;7.088;2023-04-10T12:27:26;19.90;63.50
11736;DHT22;5924;51.398;7.088;2023-04-10T12:29:53;21.80;63.00
11736;DHT22;5924;51.398;7.088;2023-04-10T12:32:20;20.30;61.00
11736;DHT22;5924;51.398;7.088;2023-04-10T12:34:50;20.30;60.50
11736;DHT22;5924;51.398;7.088;2023-04-10T12:37:16;20.30;59.70
11736;DHT22;5924;51.398;7.088;2023-04-10T12:39:42;20.40;59.80
11736;DHT22;5924;51.398;7.088;2023-04-10T12:44:55;20.40;58.80
11736;DHT22;5924;51.398;7.088;2023-04-10T12:47:22;20.10;59.80
11736;DHT22;5924;51.398;7.088;2023-04-10T12:50:08;19.90;59.70
11736;DHT22;5924;51.398;7.088;2023-04-10T12:52:36;19.50;58.30
11736;DHT22;5924;51.398;7.088;2023-04-10T12:55:15;19.40;61.00
11736;DHT22;5924;51.398;7.088;2023-04-10T12:57:43;19.20;59.50
11736;DHT22;5924;51.398;7.088;2023-04-10T13:00:12;19.30;60.50
11736;DHT22;5924;51.398;7.088;2023-04-10T13:02:39;19.60;61.00
11736;DHT22;5924;51.398;7.088;2023-04-10T13:05:05;20.20;61.30
11736;DHT22;5924;51.398;7.088;2023-04-10T13:07:32;20.80;59.50
11736;DHT22;5924;51.398;7.088;2023-04-10T13:09:58;21.00;59.20
11736;DHT22;5924;51.398;7.088;2023-04-10T13:12:24;20.80;58.40
11736;DHT22;5924;51.398;7.088;2023-04-10T13:14:51;20.50;59.30
11736;DHT22;5924;51.398;7.088;2023-04-10T13:17:20;19.80;59.00
11736;DHT22;5924;51.398;7.088;2023-04-10T13:19:46;19.30;59.50
11736;DHT22;5924;51.398;7.088;2023-04-10T13:22:12;19.20;60.90
11736;DHT22;5924;51.398;7.088;2023-04-10T13:24:38;19.20;60.60
11736;DHT22;5924;51.398;7.088;2023-04-10T13:27:04;19.10;61.70
11736;DHT22;5924;51.398;7.088;2023-04-10T13:29:30;19.00;59.50
11736;DHT22;5924;51.398;7.088;2023-04-10T13:31:55;18.90;61.10
11736;DHT22;5924;51.398;7.088;2023-04-10T13:34:21;18.90;61.80
11736;DHT22;5924;51.398;7.088;2023-04-10T13:36:47;18.80;62.50
11736;DHT22;5924;51.398;7.088;2023-04-10T13:39:13;18.80;63.10
11736;DHT22;5924;51.398;7.088;2023-04-10T13:41:38;18.50;62.60
11736;DHT22;5924;51.398;7.088;2023-04-10T13:44:04;18.30;63.30
11736;DHT22;5924;51.398;7.088;2023-04-10T13:46:30;18.20;63.70
11736;DHT22;5924;51.398;7.088;2023-04-10T13:48:56;18.40;63.10
11736;DHT22;5924;51.398;7.088;2023-04-10T13:51:21;18.40;63.50
11736;DHT22;5924;51.398;7.088;2023-04-10T13:53:47;20.80;68.40
11736;DHT22;5924;51.398;7.088;2023-04-10T13:56:13;18.50;64.40
11736;DHT22;5924;51.398;7.088;2023-04-10T13:58:38;18.40;64.00
11736;DHT22;5924;51.398;7.088;2023-04-10T14:01:04;18.60;64.90
11736;DHT22;5924;51.398;7.088;2023-04-10T14:03:30;18.50;64.00
11736;DHT22;5924;51.398;7.088;2023-04-10T14:05:56;18.50;65.30
11736;DHT22;5924;51.398;7.088;2023-04-10T14:08:22;18.50;64.30
11736;DHT22;5924;51.398;7.088;2023-04-10T14:10:47;18.60;65.30
11736;DHT22;5924;51.398;7.088;2023-04-10T14:13:17;18.50;64.60
11736;DHT22;5924;51.398;7.088;2023-04-10T14:15:43;18.50;66.10
11736;DHT22;5924;51.398;7.088;2023-04-10T14:18:09;18.30;65.40
11736;DHT22;5924;51.398;7.088;2023-04-10T14:20:35;18.20;64.50
11736;DHT22;5924;51.398;7.088;2023-04-10T14:23:01;18.10;64.70
11736;DHT22;5924;51.398;7.088;2023-04-10T14:25:26;18.00;65.70
11736;DHT22;5924;51.398;7.088;2023-04-10T14:27:52;17.90;66.00
11736;DHT22;5924;51.398;7.088;2023-04-10T14:30:18;17.70;66.10
11736;DHT22;5924;51.398;7.088;2023-04-10T14:32:44;17.60;66.40
11736;DHT22;5924;51.398;7.088;2023-04-10T14:35:10;17.50;66.40
11736;DHT22;5924;51.398;7.088;2023-04-10T14:37:35;17.40;68.10
11736;DHT22;5924;51.398;7.088;2023-04-10T14:40:02;17.40;66.80
11736;DHT22;5924;51.398;7.088;2023-04-10T14:42:29;17.40;68.40
11736;DHT22;5924;51.398;7.088;2023-04-10T14:44:55;17.40;69.00
11736;DHT22;5924;51.398;7.088;2023-04-10T14:47:23;17.40;69.60
11736;DHT22;5924;51.398;7.088;2023-04-10T14:49:49;17.40;69.00
11736;DHT22;5924;51.398;7.088;2023-04-10T14:52:14;17.50;68.90
11736;DHT22;5924;51.398;7.088;2023-04-10T14:54:40;17.50;69.20
11736;DHT22;5924;51.398;7.088;2023-04-10T14:57:06;17.60;69.20
11736;DHT22;5924;51.398;7.088;2023-04-10T14:59:31;17.60;68.40
11736;DHT22;5924;51.398;7.088;2023-04-10T15:01:57;17.60;68.90
11736;DHT22;5924;51.398;7.088;2023-04-10T15:04:23;17.70;68.80
11736;DHT22;5924;51.398;7.088;2023-04-10T15:06:48;17.60;67.50
11736;DHT22;5924;51.398;7.088;2023-04-10T15:09:15;17.60;68.90
11736;DHT22;5924;51.398;7.088;2023-04-10T15:11:41;17.50;69.10
11736;DHT22;5924;51.398;7.088;2023-04-10T15:14:06;17.40;68.40
11736;DHT22;5924;51.398;7.088;2023-04-10T15:16:33;17.30;69.40
11736;DHT22;5924;51.398;7.088;2023-04-10T15:18:58;17.20;69.70
11736;DHT22;5924;51.398;7.088;2023-04-10T15:21:24;17.30;70.60
11736;DHT22;5924;51.398;7.088;2023-04-10T15:23:51;17.30;70.60
11736;DHT22;5924;51.398;7.088;2023-04-10T15:26:17;18.50;71.60
11736;DHT22;5924;51.398;7.088;2023-04-10T15:28:43;17.50;70.70
11736;DHT22;5924;51.398;7.088;2023-04-10T15:31:09;17.50;70.80
11736;DHT22;5924;51.398;7.088;2023-04-10T15:33:36;17.60;71.60
11736;DHT22;5924;51.398;7.088;2023-04-10T15:36:04;17.70;71.40
11736;DHT22;5924;51.398;7.088;2023-04-10T15:38:34;17.80;71.00
11736;DHT22;5924;51.398;7.088;2023-04-10T15:41:00;17.80;71.80
11736;DHT22;5924;51.398;7.088;2023-04-10T15:43:26;17.80;71.00
11736;DHT22;5924;51.398;7.088;2023-04-10T15:45:52;17.90;71.50
11736;DHT22;5924;51.398;7.088;2023-04-10T15:48:18;17.90;70.10
11736;DHT22;5924;51.398;7.088;2023-04-10T15:50:46;17.90;71.50
11736;DHT22;5924;51.398;7.088;2023-04-10T15:53:12;17.40;71.10
11736;DHT22;5924;51.398;7.088;2023-04-10T15:55:39;18.10;70.30
11736;DHT22;5924;51.398;7.088;2023-04-10T15:58:05;18.10;69.40
11736;DHT22;5924;51.398;7.088;2023-04-10T16:00:30;18.10;69.50
11736;DHT22;5924;51.398;7.088;2023-04-10T16:02:56;18.00;68.80
11736;DHT22;5924;51.398;7.088;2023-04-10T16:05:22;17.70;69.40
11736;DHT22;5924;51.398;7.088;2023-04-10T16:07:47;17.60;71.20
11736;DHT22;5924;51.398;7.088;2023-04-10T16:10:13;17.50;69.30
11736;DHT22;5924;51.398;7.088;2023-04-10T16:12:40;17.40;70.00
11736;DHT22;5924;51.398;7.088;2023-04-10T16:15:06;17.30;70.70
11736;DHT22;5924;51.398;7.088;2023-04-10T16:17:33;17.20;70.20
11736;DHT22;5924;51.398;7.088;2023-04-10T16:19:58;17.10;71.70
11736;DHT22;5924;51.398;7.088;2023-04-10T16:22:25;16.90;72.50
11736;DHT22;5924;51.398;7.088;2023-04-10T16:24:55;16.80;72.60
11736;DHT22;5924;51.398;7.088;2023-04-10T16:27:21;16.80;72.70
11736;DHT22;5924;51.398;7.088;2023-04-10T16:29:47;16.80;74.10
11736;DHT22;5924;51.398;7.088;2023-04-10T16:32:12;16.70;74.60
11736;DHT22;5924;51.398;7.088;2023-04-10T16:34:38;16.70;75.10
11736;DHT22;5924;51.398;7.088;2023-04-10T16:37:03;16.60;76.00
11736;DHT22;5924;51.398;7.088;2023-04-10T16:39:29;16.50;75.90
11736;DHT22;5924;51.398;7.088;2023-04-10T16:41:55;16.40;76.80
11736;DHT22;5924;51.398;7.088;2023-04-10T16:44:20;16.30;77.10